Ahoskie, NC

4:26 PM EDT on July 22, 2014 (GMT -0400)
Tri County (KASJ) Elev 69 ft | 36.30 °N, 77.17 °W | Change Station

Current weather conditions updated 11 minutes ago

Partly Cloudy
Partly Cloudy
74 °F
Feels Like 74 °F
N
8
Wind Variable Wind from SSE
Gusts 16 mph

Tomorrow is forecast to be Warmer than today. Afternoon thunderstorms.

Today
High -- | Low -- °F
--% Chance of Precip.
Yesterday
High -- | Low -- °F
Precip. -- in
6:06 AM 8:21 PM
Waning Crescent, 15% visible
Pressure 30.14 in
Visibility 1.8 miles
Clouds Scattered Clouds 500 ft
Mostly Cloudy 2300 ft
Overcast 3600 ft
Dew Point 70 °F
Humidity 90%
Rainfall 0.17 in
Snow Depth Not available.
UV 2 out of 12
Pollen 5.40 out of 12
Air Quality Not available.
Flu Activity No Activity
METAR KASJ 222015Z AUTO 15007G14KT 1 3/4SM SCT005 BKN023 OVC036 23/21 A3014 RMK AO2 P0017 T02310213

More Conditions Fewer Conditions

Pressure 30.14 in
Visibility 1.8 miles
Clouds Scattered Clouds 500 ft
Mostly Cloudy 2300 ft
Overcast 3600 ft
Dew Point 70 °F
Humidity 90%
Rainfall 0.17 in
Snow Depth Not available.
UV 2 out of 12
Pollen 5.40 out of 12
Air Quality Not available.
Flu Activity No Activity
METAR KASJ 222015Z AUTO 15007G14KT 1 3/4SM SCT005 BKN023 OVC036 23/21 A3014 RMK AO2 P0017 T02310213

More Conditions Fewer Conditions

10-Day Weather Forecast

Almanac

Astronomy

Jul. 22, 2014 Rise Set
Actual Time 6:06 AM EDT 8:21 PM EDT
Civil Twilight 5:37 AM EDT 8:50 PM EDT
Nautical Twilight 5:02 AM EDT 9:26 PM EDT
Astronomical Twilight 4:23 AM EDT 10:04 PM EDT
Moon 2:37 AM EDT 4:58 PM EDT
Length of Visible Light 15h 12m
Length of Day
14h 14m
Tomorrow will be 1m 27s shorter.
Waning Crescent, 15% of the Moon is Illuminated
Today
Waning Crescent
Jul 26
New
Aug 3
First Quarter
Aug 10
Full
Aug 17
Last Quarter

Today's Extremes

State Highs State Lows

Community

WunderPhotos

Upload Photos

1,736,345 photos uploaded!

Nearby

Snow Depth

Station Depth Elevation
No new snow has been reported.

Earthquake Activity

City Distance Mag. Time & Date
No recent earthquake activity has been reported nearby.
Minimum magnitude displayed is 2.5.

Coastal Water Temperatures

Place Temperature
Oregon Inlet Marina, NC 78.1 °F
Duck Pier, NC 73.9 °F
Hatteras, NC 82.0 °F
Money Point, VA 81.0 °F
Sewells Point, VA 79.0 °F
Chesapeake Bay Bridge Tunnel, VA 78.1 °F

Nearby Weather Stations

Station Location Temp. Heat Index Dew Point Humidity Wind Precip. Elev Updated Type
Nowell Farm Road, Colerain, NC 77.4 °F 79 °F 76 °F 95% ENE  at  5.6 mph 0.00 in / hr 75 ft 4:26 PM EDT Rapid Fire
Ashley's Grove, Conway, NC 78.5 °F 81 °F 73 °F 83% SE  at  8.0 mph 0.00 in / hr 65 ft 4:26 PM EDT Rapid Fire
Conway - 35S, Conway, NC 82.0 °F 86 °F 70 °F 68% SSE  at  4.0 mph 0.00 in / hr 105 ft 4:26 PM EDT Normal
RAWS GREENS CROSS NC, Windsor, NC 77 °F 78 °F 72 °F 84% East  at  4 mph 0.01 in / hr 41 ft 3:17 PM EDT MADIS

Show More Stations Show Fewer Stations